sensor_id;sensor_type;location;lat;lon;timestamp;pressure;altitude;pressure_sealevel;temperature;humidity
21728;BME280;11026;50.560;17.852;2023-07-30T00:01:00;98930.25;;;17.01;100.00
21728;BME280;11026;50.560;17.852;2023-07-30T00:03:27;98925.97;;;17.09;100.00
21728;BME280;11026;50.560;17.852;2023-07-30T00:05:55;98939.09;;;17.12;100.00
21728;BME280;11026;50.560;17.852;2023-07-30T00:08:23;98933.84;;;17.22;100.00
21728;BME280;11026;50.560;17.852;2023-07-30T00:10:52;98934.56;;;17.35;100.00
21728;BME280;11026;50.560;17.852;2023-07-30T00:13:20;98937.03;;;17.27;100.00
21728;BME280;11026;50.560;17.852;2023-07-30T00:15:50;98938.72;;;17.28;100.00
21728;BME280;11026;50.560;17.852;2023-07-30T00:18:18;98937.63;;;17.31;100.00
21728;BME280;11026;50.560;17.852;2023-07-30T00:20:46;98952.31;;;17.36;100.00
21728;BME280;11026;50.560;17.852;2023-07-30T00:23:13;98951.00;;;17.31;100.00
21728;BME280;11026;50.560;17.852;2023-07-30T00:25:40;98952.78;;;17.30;100.00
21728;BME280;11026;50.560;17.852;2023-07-30T00:28:08;98952.56;;;17.22;100.00
21728;BME280;11026;50.560;17.852;2023-07-30T00:30:35;98945.41;;;17.23;100.00
21728;BME280;11026;50.560;17.852;2023-07-30T00:33:05;98945.06;;;17.16;100.00
21728;BME280;11026;50.560;17.852;2023-07-30T00:35:32;98948.44;;;17.18;100.00
21728;BME280;11026;50.560;17.852;2023-07-30T00:38:00;98950.63;;;17.13;100.00
21728;BME280;11026;50.560;17.852;2023-07-30T00:40:27;98962.41;;;17.10;100.00
21728;BME280;11026;50.560;17.852;2023-07-30T00:43:02;98961.78;;;17.18;100.00
21728;BME280;11026;50.560;17.852;2023-07-30T00:45:29;98955.50;;;17.08;100.00
21728;BME280;11026;50.560;17.852;2023-07-30T00:47:57;98955.97;;;17.13;100.00
21728;BME280;11026;50.560;17.852;2023-07-30T00:50:26;98955.75;;;16.93;100.00
21728;BME280;11026;50.560;17.852;2023-07-30T00:52:54;98949.78;;;17.01;100.00
21728;BME280;11026;50.560;17.852;2023-07-30T00:55:21;98950.25;;;17.06;100.00
21728;BME280;11026;50.560;17.852;2023-07-30T00:57:49;98951.63;;;17.01;100.00
21728;BME280;11026;50.560;17.852;2023-07-30T01:00:23;98954.03;;;16.92;100.00
21728;BME280;11026;50.560;17.852;2023-07-30T01:02:51;98947.00;;;16.91;100.00
21728;BME280;11026;50.560;17.852;2023-07-30T01:05:19;98949.69;;;16.91;100.00
21728;BME280;11026;50.560;17.852;2023-07-30T01:07:47;98949.19;;;16.98;100.00
21728;BME280;11026;50.560;17.852;2023-07-30T01:10:17;98952.94;;;17.06;100.00
21728;BME280;11026;50.560;17.852;2023-07-30T01:12:45;98947.63;;;16.95;100.00
21728;BME280;11026;50.560;17.852;2023-07-30T01:15:13;98948.84;;;16.80;100.00
21728;BME280;11026;50.560;17.852;2023-07-30T01:17:42;98955.41;;;16.87;100.00
21728;BME280;11026;50.560;17.852;2023-07-30T01:20:10;98960.31;;;16.69;100.00
21728;BME280;11026;50.560;17.852;2023-07-30T01:22:38;98959.06;;;16.51;100.00
21728;BME280;11026;50.560;17.852;2023-07-30T01:25:14;98962.00;;;16.47;100.00
21728;BME280;11026;50.560;17.852;2023-07-30T01:27:48;98974.78;;;16.31;100.00
21728;BME280;11026;50.560;17.852;2023-07-30T01:30:41;98969.50;;;16.42;100.00
21728;BME280;11026;50.560;17.852;2023-07-30T01:33:11;98976.97;;;16.26;100.00
21728;BME280;11026;50.560;17.852;2023-07-30T01:35:41;98980.06;;;16.09;100.00
21728;BME280;11026;50.560;17.852;2023-07-30T01:38:13;98976.69;;;15.83;100.00
21728;BME280;11026;50.560;17.852;2023-07-30T01:40:46;98978.97;;;15.76;100.00
21728;BME280;11026;50.560;17.852;2023-07-30T01:43:14;98976.91;;;15.80;100.00
21728;BME280;11026;50.560;17.852;2023-07-30T01:45:41;98984.22;;;16.13;100.00
21728;BME280;11026;50.560;17.852;2023-07-30T01:48:08;98981.94;;;16.19;100.00
21728;BME280;11026;50.560;17.852;2023-07-30T01:50:37;98989.06;;;16.08;100.00
21728;BME280;11026;50.560;17.852;2023-07-30T01:53:04;98983.72;;;16.08;100.00
21728;BME280;11026;50.560;17.852;2023-07-30T01:55:32;98990.75;;;16.09;100.00
21728;BME280;11026;50.560;17.852;2023-07-30T01:57:59;98999.22;;;15.79;100.00
21728;BME280;11026;50.560;17.852;2023-07-30T02:00:27;99001.16;;;15.64;100.00
21728;BME280;11026;50.560;17.852;2023-07-30T02:02:54;98996.47;;;15.67;100.00
21728;BME280;11026;50.560;17.852;2023-07-30T02:05:22;98995.44;;;15.57;100.00
21728;BME280;11026;50.560;17.852;2023-07-30T02:07:50;98997.34;;;15.68;100.00
21728;BME280;11026;50.560;17.852;2023-07-30T02:10:18;98996.28;;;15.58;100.00
21728;BME280;11026;50.560;17.852;2023-07-30T02:12:45;98993.88;;;15.79;100.00
21728;BME280;11026;50.560;17.852;2023-07-30T02:15:14;98991.16;;;15.67;100.00
21728;BME280;11026;50.560;17.852;2023-07-30T02:17:41;98985.84;;;15.55;100.00
21728;BME280;11026;50.560;17.852;2023-07-30T02:20:09;98980.56;;;15.42;100.00
21728;BME280;11026;50.560;17.852;2023-07-30T02:22:36;98981.09;;;15.34;100.00
21728;BME280;11026;50.560;17.852;2023-07-30T02:25:04;98978.56;;;15.33;100.00
21728;BME280;11026;50.560;17.852;2023-07-30T02:27:32;98977.38;;;15.24;100.00
21728;BME280;11026;50.560;17.852;2023-07-30T02:29:59;98976.66;;;15.22;100.00
21728;BME280;11026;50.560;17.852;2023-07-30T02:32:27;98967.09;;;15.43;100.00
21728;BME280;11026;50.560;17.852;2023-07-30T02:34:56;98970.69;;;15.68;100.00
21728;BME280;11026;50.560;17.852;2023-07-30T02:37:23;98974.44;;;15.65;100.00
21728;BME280;11026;50.560;17.852;2023-07-30T02:39:51;98977.78;;;15.80;100.00
21728;BME280;11026;50.560;17.852;2023-07-30T02:42:18;98971.09;;;15.62;100.00
21728;BME280;11026;50.560;17.852;2023-07-30T02:44:46;98979.03;;;15.50;100.00
21728;BME280;11026;50.560;17.852;2023-07-30T02:47:13;98980.78;;;15.39;100.00
21728;BME280;11026;50.560;17.852;2023-07-30T02:49:41;98976.16;;;15.17;100.00
21728;BME280;11026;50.560;17.852;2023-07-30T02:52:09;98985.03;;;15.05;100.00
21728;BME280;11026;50.560;17.852;2023-07-30T02:54:36;98984.06;;;15.06;100.00
21728;BME280;11026;50.560;17.852;2023-07-30T02:57:04;98988.09;;;14.98;100.00
21728;BME280;11026;50.560;17.852;2023-07-30T02:59:31;98990.47;;;14.90;100.00
21728;BME280;11026;50.560;17.852;2023-07-30T03:02:03;98992.81;;;14.82;100.00
21728;BME280;11026;50.560;17.852;2023-07-30T03:04:32;99006.66;;;14.87;100.00
21728;BME280;11026;50.560;17.852;2023-07-30T03:07:00;98999.63;;;14.86;100.00
21728;BME280;11026;50.560;17.852;2023-07-30T03:09:29;98997.59;;;15.03;100.00
21728;BME280;11026;50.560;17.852;2023-07-30T03:11:57;98992.94;;;15.30;100.00
21728;BME280;11026;50.560;17.852;2023-07-30T03:14:24;98988.59;;;15.29;100.00
21728;BME280;11026;50.560;17.852;2023-07-30T03:16:52;98994.03;;;15.15;100.00
21728;BME280;11026;50.560;17.852;2023-07-30T03:19:19;98991.25;;;15.29;100.00
21728;BME280;11026;50.560;17.852;2023-07-30T03:21:46;98991.88;;;15.20;100.00
21728;BME280;11026;50.560;17.852;2023-07-30T03:24:14;98988.03;;;15.37;100.00
21728;BME280;11026;50.560;17.852;2023-07-30T03:26:41;98993.63;;;15.21;100.00
21728;BME280;11026;50.560;17.852;2023-07-30T03:29:10;98997.84;;;15.36;100.00
21728;BME280;11026;50.560;17.852;2023-07-30T03:31:37;98995.75;;;15.29;100.00
21728;BME280;11026;50.560;17.852;2023-07-30T03:34:05;99000.75;;;15.20;100.00
21728;BME280;11026;50.560;17.852;2023-07-30T03:36:34;98997.22;;;15.20;100.00
21728;BME280;11026;50.560;17.852;2023-07-30T03:39:01;99006.63;;;15.13;100.00
21728;BME280;11026;50.560;17.852;2023-07-30T03:41:29;99009.84;;;15.05;100.00
21728;BME280;11026;50.560;17.852;2023-07-30T03:43:56;99008.50;;;15.36;100.00
21728;BME280;11026;50.560;17.852;2023-07-30T03:46:23;99006.75;;;15.48;100.00
21728;BME280;11026;50.560;17.852;2023-07-30T03:48:51;99016.34;;;15.50;100.00
21728;BME280;11026;50.560;17.852;2023-07-30T03:51:18;99019.97;;;15.49;100.00
21728;BME280;11026;50.560;17.852;2023-07-30T03:53:46;99015.16;;;15.55;100.00
21728;BME280;11026;50.560;17.852;2023-07-30T03:56:13;99025.94;;;15.66;100.00
21728;BME280;11026;50.560;17.852;2023-07-30T03:58:41;99032.75;;;15.70;100.00
21728;BME280;11026;50.560;17.852;2023-07-30T04:01:08;99024.22;;;15.65;100.00
21728;BME280;11026;50.560;17.852;2023-07-30T04:03:35;99024.63;;;15.71;100.00
21728;BME280;11026;50.560;17.852;2023-07-30T04:06:03;99027.81;;;15.64;100.00
21728;BME280;11026;50.560;17.852;2023-07-30T04:08:31;99023.13;;;15.67;100.00
21728;BME280;11026;50.560;17.852;2023-07-30T04:11:00;99026.78;;;15.66;100.00
21728;BME280;11026;50.560;17.852;2023-07-30T04:13:29;99023.25;;;15.66;100.00
21728;BME280;11026;50.560;17.852;2023-07-30T04:16:02;99019.31;;;15.59;100.00
21728;BME280;11026;50.560;17.852;2023-07-30T04:18:30;99013.75;;;15.62;100.00
21728;BME280;11026;50.560;17.852;2023-07-30T04:20:59;99003.09;;;15.62;100.00
21728;BME280;11026;50.560;17.852;2023-07-30T04:23:27;99011.56;;;15.80;100.00
21728;BME280;11026;50.560;17.852;2023-07-30T04:25:54;99016.06;;;15.79;100.00
21728;BME280;11026;50.560;17.852;2023-07-30T04:28:21;99008.41;;;15.98;100.00
21728;BME280;11026;50.560;17.852;2023-07-30T04:30:55;99014.34;;;16.26;100.00
21728;BME280;11026;50.560;17.852;2023-07-30T04:33:24;99008.53;;;16.32;100.00
21728;BME280;11026;50.560;17.852;2023-07-30T04:35:53;99011.00;;;16.35;100.00
21728;BME280;11026;50.560;17.852;2023-07-30T04:38:23;99009.78;;;16.39;100.00
21728;BME280;11026;50.560;17.852;2023-07-30T04:40:50;99009.06;;;16.48;100.00
21728;BME280;11026;50.560;17.852;2023-07-30T04:43:17;99002.50;;;16.41;100.00
21728;BME280;11026;50.560;17.852;2023-07-30T04:45:45;99003.03;;;16.58;100.00
21728;BME280;11026;50.560;17.852;2023-07-30T04:48:12;99019.03;;;16.58;100.00
21728;BME280;11026;50.560;17.852;2023-07-30T04:50:40;99003.56;;;16.74;100.00
21728;BME280;11026;50.560;17.852;2023-07-30T04:53:10;99015.00;;;16.87;100.00
21728;BME280;11026;50.560;17.852;2023-07-30T04:55:38;99010.28;;;16.91;100.00
21728;BME280;11026;50.560;17.852;2023-07-30T04:58:06;99012.94;;;17.13;100.00
21728;BME280;11026;50.560;17.852;2023-07-30T05:00:34;99014.25;;;17.30;100.00
21728;BME280;11026;50.560;17.852;2023-07-30T05:03:01;99016.22;;;17.39;100.00
21728;BME280;11026;50.560;17.852;2023-07-30T05:05:29;99020.13;;;17.47;100.00
21728;BME280;11026;50.560;17.852;2023-07-30T05:07:57;99016.91;;;17.53;100.00
21728;BME280;11026;50.560;17.852;2023-07-30T05:10:24;99019.34;;;17.67;100.00
21728;BME280;11026;50.560;17.852;2023-07-30T05:12:52;99030.00;;;17.89;100.00
21728;BME280;11026;50.560;17.852;2023-07-30T05:15:19;99024.03;;;17.97;100.00
21728;BME280;11026;50.560;17.852;2023-07-30T05:17:47;99024.63;;;18.01;100.00
21728;BME280;11026;50.560;17.852;2023-07-30T05:20:20;99022.66;;;18.14;100.00
21728;BME280;11026;50.560;17.852;2023-07-30T05:22:48;99017.22;;;18.25;100.00
21728;BME280;11026;50.560;17.852;2023-07-30T05:25:22;99017.44;;;18.33;100.00
21728;BME280;11026;50.560;17.852;2023-07-30T05:27:50;99019.53;;;18.51;100.00
21728;BME280;11026;50.560;17.852;2023-07-30T05:30:17;99025.69;;;18.62;96.77
21728;BME280;11026;50.560;17.852;2023-07-30T05:32:45;99032.13;;;18.71;96.16
21728;BME280;11026;50.560;17.852;2023-07-30T05:35:12;99032.47;;;18.66;95.28
21728;BME280;11026;50.560;17.852;2023-07-30T05:37:40;99028.44;;;18.93;96.45
21728;BME280;11026;50.560;17.852;2023-07-30T05:40:13;99031.78;;;19.16;90.88
21728;BME280;11026;50.560;17.852;2023-07-30T05:42:42;99031.59;;;19.38;93.59
21728;BME280;11026;50.560;17.852;2023-07-30T05:45:10;99037.97;;;19.37;92.98
21728;BME280;11026;50.560;17.852;2023-07-30T05:47:38;99038.84;;;19.48;92.68
21728;BME280;11026;50.560;17.852;2023-07-30T05:50:07;99042.16;;;19.61;93.34
21728;BME280;11026;50.560;17.852;2023-07-30T05:52:35;99050.66;;;19.76;92.59
21728;BME280;11026;50.560;17.852;2023-07-30T05:55:05;99061.13;;;19.79;89.90
21728;BME280;11026;50.560;17.852;2023-07-30T05:57:32;99047.50;;;19.61;89.69
21728;BME280;11026;50.560;17.852;2023-07-30T06:00:00;99049.47;;;19.59;91.65
21728;BME280;11026;50.560;17.852;2023-07-30T06:02:28;99055.31;;;19.64;90.00
21728;BME280;11026;50.560;17.852;2023-07-30T06:04:56;99054.66;;;19.81;88.71
21728;BME280;11026;50.560;17.852;2023-07-30T06:07:23;99063.97;;;19.77;85.92
21728;BME280;11026;50.560;17.852;2023-07-30T06:09:51;99069.50;;;19.95;85.79
21728;BME280;11026;50.560;17.852;2023-07-30T06:12:19;99072.88;;;19.87;85.23
21728;BME280;11026;50.560;17.852;2023-07-30T06:14:47;99071.34;;;19.95;86.55
21728;BME280;11026;50.560;17.852;2023-07-30T06:17:14;99079.00;;;20.19;86.95
21728;BME280;11026;50.560;17.852;2023-07-30T06:19:42;99077.88;;;20.31;85.14
21728;BME280;11026;50.560;17.852;2023-07-30T06:22:09;99088.50;;;20.32;84.27
21728;BME280;11026;50.560;17.852;2023-07-30T06:24:36;99083.84;;;20.34;84.50
21728;BME280;11026;50.560;17.852;2023-07-30T06:27:04;99084.41;;;20.48;81.64
21728;BME280;11026;50.560;17.852;2023-07-30T06:29:32;99079.88;;;20.48;82.38
21728;BME280;11026;50.560;17.852;2023-07-30T06:31:59;99089.78;;;20.48;81.79
21728;BME280;11026;50.560;17.852;2023-07-30T06:34:28;99080.47;;;20.61;83.43
21728;BME280;11026;50.560;17.852;2023-07-30T06:36:55;99081.63;;;20.59;81.27
21728;BME280;11026;50.560;17.852;2023-07-30T06:39:23;99078.19;;;20.67;83.55
21728;BME280;11026;50.560;17.852;2023-07-30T06:41:51;99081.59;;;20.78;80.83
21728;BME280;11026;50.560;17.852;2023-07-30T06:44:19;99087.56;;;20.72;81.03
21728;BME280;11026;50.560;17.852;2023-07-30T06:46:46;99077.34;;;20.85;81.60
21728;BME280;11026;50.560;17.852;2023-07-30T06:49:14;99079.78;;;20.79;80.83
21728;BME280;11026;50.560;17.852;2023-07-30T06:51:41;99076.06;;;20.90;79.97
21728;BME280;11026;50.560;17.852;2023-07-30T06:54:09;99072.41;;;20.91;81.49
21728;BME280;11026;50.560;17.852;2023-07-30T06:56:36;99064.88;;;21.04;79.25
21728;BME280;11026;50.560;17.852;2023-07-30T06:59:04;99066.50;;;21.24;77.56
21728;BME280;11026;50.560;17.852;2023-07-30T07:01:31;99076.38;;;21.43;78.08
21728;BME280;11026;50.560;17.852;2023-07-30T07:03:59;99066.16;;;21.47;74.78
21728;BME280;11026;50.560;17.852;2023-07-30T07:06:26;99065.53;;;21.63;74.19
21728;BME280;11026;50.560;17.852;2023-07-30T07:08:54;99071.47;;;21.66;75.15
21728;BME280;11026;50.560;17.852;2023-07-30T07:11:21;99064.16;;;21.76;74.69
21728;BME280;11026;50.560;17.852;2023-07-30T07:13:49;99066.28;;;21.82;73.86
21728;BME280;11026;50.560;17.852;2023-07-30T07:16:17;99068.69;;;22.03;75.17
21728;BME280;11026;50.560;17.852;2023-07-30T07:18:46;99067.75;;;22.22;70.95
21728;BME280;11026;50.560;17.852;2023-07-30T07:21:16;99078.13;;;22.17;70.87
21728;BME280;11026;50.560;17.852;2023-07-30T07:23:43;99067.44;;;22.25;71.76
21728;BME280;11026;50.560;17.852;2023-07-30T07:26:11;99070.59;;;22.39;70.81
21728;BME280;11026;50.560;17.852;2023-07-30T07:28:39;99072.34;;;22.48;72.26
21728;BME280;11026;50.560;17.852;2023-07-30T07:31:06;99061.88;;;22.63;70.97
21728;BME280;11026;50.560;17.852;2023-07-30T07:33:35;99067.03;;;22.74;69.56
21728;BME280;11026;50.560;17.852;2023-07-30T07:36:05;99063.19;;;22.94;68.16
21728;BME280;11026;50.560;17.852;2023-07-30T07:38:39;99074.88;;;22.85;68.30
21728;BME280;11026;50.560;17.852;2023-07-30T07:41:16;99068.03;;;22.91;69.85
21728;BME280;11026;50.560;17.852;2023-07-30T07:43:45;99069.41;;;22.95;69.75
21728;BME280;11026;50.560;17.852;2023-07-30T07:46:20;99078.72;;;23.00;67.30
21728;BME280;11026;50.560;17.852;2023-07-30T07:48:48;99073.06;;;23.12;66.70
21728;BME280;11026;50.560;17.852;2023-07-30T07:51:15;99065.63;;;23.40;66.97
21728;BME280;11026;50.560;17.852;2023-07-30T07:53:43;99059.91;;;23.43;67.15
21728;BME280;11026;50.560;17.852;2023-07-30T07:56:10;99054.97;;;23.64;64.86
21728;BME280;11026;50.560;17.852;2023-07-30T07:58:38;99056.81;;;24.06;64.75
21728;BME280;11026;50.560;17.852;2023-07-30T08:01:05;99049.25;;;24.26;61.50
21728;BME280;11026;50.560;17.852;2023-07-30T08:03:34;99062.78;;;24.34;61.77
21728;BME280;11026;50.560;17.852;2023-07-30T08:06:03;99056.91;;;24.47;61.12
21728;BME280;11026;50.560;17.852;2023-07-30T08:08:31;99052.03;;;24.67;61.05
21728;BME280;11026;50.560;17.852;2023-07-30T08:11:05;99046.09;;;24.88;61.04
21728;BME280;11026;50.560;17.852;2023-07-30T08:13:33;99053.19;;;25.13;58.83
21728;BME280;11026;50.560;17.852;2023-07-30T08:16:01;99048.78;;;25.12;58.55
21728;BME280;11026;50.560;17.852;2023-07-30T08:18:29;99054.53;;;25.17;58.91
21728;BME280;11026;50.560;17.852;2023-07-30T08:20:59;99057.22;;;25.25;57.46
21728;BME280;11026;50.560;17.852;2023-07-30T08:23:27;99061.75;;;25.41;57.49
21728;BME280;11026;50.560;17.852;2023-07-30T08:25:55;99068.03;;;25.34;57.35
21728;BME280;11026;50.560;17.852;2023-07-30T08:28:23;99069.03;;;25.33;56.57
21728;BME280;11026;50.560;17.852;2023-07-30T08:30:50;99081.41;;;24.94;57.97
21728;BME280;11026;50.560;17.852;2023-07-30T08:33:18;99075.88;;;24.71;58.75
21728;BME280;11026;50.560;17.852;2023-07-30T08:35:45;99075.50;;;24.99;57.46
21728;BME280;11026;50.560;17.852;2023-07-30T08:38:13;99070.75;;;25.17;58.32
21728;BME280;11026;50.560;17.852;2023-07-30T08:40:40;99067.50;;;25.46;56.24
21728;BME280;11026;50.560;17.852;2023-07-30T08:43:09;99069.34;;;25.46;56.02
21728;BME280;11026;50.560;17.852;2023-07-30T08:45:36;99087.06;;;25.57;56.67
21728;BME280;11026;50.560;17.852;2023-07-30T08:48:04;99081.09;;;25.69;55.22
21728;BME280;11026;50.560;17.852;2023-07-30T08:50:33;99084.09;;;25.35;57.35
21728;BME280;11026;50.560;17.852;2023-07-30T08:53:03;99078.22;;;25.23;57.44
21728;BME280;11026;50.560;17.852;2023-07-30T08:55:33;99078.91;;;25.09;56.64
21728;BME280;11026;50.560;17.852;2023-07-30T08:58:04;99071.06;;;25.39;57.03
21728;BME280;11026;50.560;17.852;2023-07-30T09:00:35;99073.72;;;25.55;56.45
21728;BME280;11026;50.560;17.852;2023-07-30T09:03:04;99071.59;;;25.34;57.37
21728;BME280;11026;50.560;17.852;2023-07-30T09:05:33;99074.13;;;25.36;56.96
21728;BME280;11026;50.560;17.852;2023-07-30T09:08:06;99069.66;;;25.59;56.02
21728;BME280;11026;50.560;17.852;2023-07-30T09:10:36;99070.88;;;25.40;56.06
21728;BME280;11026;50.560;17.852;2023-07-30T09:13:03;99070.69;;;25.42;57.27
21728;BME280;11026;50.560;17.852;2023-07-30T09:15:36;99075.25;;;25.49;57.29
21728;BME280;11026;50.560;17.852;2023-07-30T09:18:05;99073.31;;;25.19;55.66
21728;BME280;11026;50.560;17.852;2023-07-30T09:20:41;99068.38;;;25.06;56.66
21728;BME280;11026;50.560;17.852;2023-07-30T09:23:10;99058.94;;;25.10;56.77
21728;BME280;11026;50.560;17.852;2023-07-30T09:25:38;99060.19;;;25.55;56.24
21728;BME280;11026;50.560;17.852;2023-07-30T09:28:06;99055.28;;;25.98;55.34
21728;BME280;11026;50.560;17.852;2023-07-30T09:30:33;99052.44;;;25.91;54.75
21728;BME280;11026;50.560;17.852;2023-07-30T09:33:01;99056.72;;;25.14;55.87
21728;BME280;11026;50.560;17.852;2023-07-30T09:35:28;99053.34;;;25.20;54.86
21728;BME280;11026;50.560;17.852;2023-07-30T09:38:01;99056.19;;;25.35;55.89
21728;BME280;11026;50.560;17.852;2023-07-30T09:40:35;99051.78;;;25.34;56.05
21728;BME280;11026;50.560;17.852;2023-07-30T09:43:04;99054.47;;;25.50;54.91
21728;BME280;11026;50.560;17.852;2023-07-30T09:45:36;99050.00;;;25.57;54.92
21728;BME280;11026;50.560;17.852;2023-07-30T09:48:09;99054.00;;;25.69;54.35
21728;BME280;11026;50.560;17.852;2023-07-30T09:50:37;99046.88;;;25.85;54.09
21728;BME280;11026;50.560;17.852;2023-07-30T09:53:05;99046.81;;;25.93;55.23
21728;BME280;11026;50.560;17.852;2023-07-30T09:55:34;99043.41;;;25.99;53.74
21728;BME280;11026;50.560;17.852;2023-07-30T09:58:01;99053.75;;;26.27;54.57
21728;BME280;11026;50.560;17.852;2023-07-30T10:00:36;99042.13;;;26.41;54.41
21728;BME280;11026;50.560;17.852;2023-07-30T10:03:04;99045.63;;;25.95;53.21
21728;BME280;11026;50.560;17.852;2023-07-30T10:05:34;99049.00;;;25.58;54.70
21728;BME280;11026;50.560;17.852;2023-07-30T10:08:09;99041.22;;;25.55;54.80
21728;BME280;11026;50.560;17.852;2023-07-30T10:10:38;99040.44;;;25.30;56.33
21728;BME280;11026;50.560;17.852;2023-07-30T10:13:08;99047.38;;;25.33;55.02
21728;BME280;11026;50.560;17.852;2023-07-30T10:15:40;99045.00;;;25.77;54.99
21728;BME280;11026;50.560;17.852;2023-07-30T10:18:08;99051.97;;;26.42;53.08
21728;BME280;11026;50.560;17.852;2023-07-30T10:20:35;99044.28;;;26.68;53.09
21728;BME280;11026;50.560;17.852;2023-07-30T10:23:04;99049.06;;;26.66;51.84
21728;BME280;11026;50.560;17.852;2023-07-30T10:25:46;99043.81;;;26.42;52.14
21728;BME280;11026;50.560;17.852;2023-07-30T10:30:58;99047.47;;;26.57;53.65
21728;BME280;11026;50.560;17.852;2023-07-30T10:33:53;99045.59;;;26.04;53.37
21728;BME280;11026;50.560;17.852;2023-07-30T10:36:41;99037.75;;;25.69;54.75
21728;BME280;11026;50.560;17.852;2023-07-30T10:39:12;99042.72;;;25.66;55.36
21728;BME280;11026;50.560;17.852;2023-07-30T10:41:42;99041.94;;;26.19;53.79
21728;BME280;11026;50.560;17.852;2023-07-30T10:44:37;99038.53;;;26.26;51.96
21728;BME280;11026;50.560;17.852;2023-07-30T10:47:10;99031.41;;;26.70;51.72
21728;BME280;11026;50.560;17.852;2023-07-30T10:50:01;99028.19;;;26.90;52.21
21728;BME280;11026;50.560;17.852;2023-07-30T10:52:30;99031.06;;;26.73;52.31
21728;BME280;11026;50.560;17.852;2023-07-30T10:55:00;99029.88;;;26.53;52.89
21728;BME280;11026;50.560;17.852;2023-07-30T10:57:31;99032.75;;;26.52;53.33
21728;BME280;11026;50.560;17.852;2023-07-30T10:59:59;99021.50;;;26.78;51.56
21728;BME280;11026;50.560;17.852;2023-07-30T11:02:28;99022.66;;;26.98;51.77
21728;BME280;11026;50.560;17.852;2023-07-30T11:04:57;99013.75;;;27.12;50.67
21728;BME280;11026;50.560;17.852;2023-07-30T11:07:24;99015.44;;;27.13;51.28
21728;BME280;11026;50.560;17.852;2023-07-30T11:09:59;99012.78;;;27.64;49.15
21728;BME280;11026;50.560;17.852;2023-07-30T11:12:34;99001.78;;;28.24;45.92
21728;BME280;11026;50.560;17.852;2023-07-30T11:15:02;99007.03;;;28.96;45.71
21728;BME280;11026;50.560;17.852;2023-07-30T11:17:30;99004.38;;;29.37;44.24
21728;BME280;11026;50.560;17.852;2023-07-30T11:20:23;99015.06;;;29.74;43.51
21728;BME280;11026;50.560;17.852;2023-07-30T11:22:51;99007.25;;;30.19;44.14
21728;BME280;11026;50.560;17.852;2023-07-30T11:25:25;99001.84;;;30.45;42.97
21728;BME280;11026;50.560;17.852;2023-07-30T11:27:53;99007.16;;;29.92;43.10
21728;BME280;11026;50.560;17.852;2023-07-30T11:30:22;99004.78;;;28.78;45.19
21728;BME280;11026;50.560;17.852;2023-07-30T11:32:50;99003.16;;;27.98;47.38
21728;BME280;11026;50.560;17.852;2023-07-30T11:35:18;98998.72;;;27.76;46.44
21728;BME280;11026;50.560;17.852;2023-07-30T11:37:47;98997.28;;;27.29;47.90
21728;BME280;11026;50.560;17.852;2023-07-30T11:40:14;98992.91;;;27.79;47.73
21728;BME280;11026;50.560;17.852;2023-07-30T11:42:42;98996.50;;;28.37;46.21
21728;BME280;11026;50.560;17.852;2023-07-30T11:45:22;98989.00;;;28.95;45.29
21728;BME280;11026;50.560;17.852;2023-07-30T11:47:51;98986.41;;;29.43;44.87
21728;BME280;11026;50.560;17.852;2023-07-30T11:50:19;98988.44;;;29.76;44.25
21728;BME280;11026;50.560;17.852;2023-07-30T11:52:56;98982.84;;;29.08;46.35
21728;BME280;11026;50.560;17.852;2023-07-30T11:55:37;98984.63;;;27.87;48.19
21728;BME280;11026;50.560;17.852;2023-07-30T11:58:08;98987.84;;;27.76;47.84
21728;BME280;11026;50.560;17.852;2023-07-30T12:00:38;98980.03;;;27.87;47.07
21728;BME280;11026;50.560;17.852;2023-07-30T12:03:10;98979.13;;;27.65;47.53
21728;BME280;11026;50.560;17.852;2023-07-30T12:05:39;98986.41;;;27.94;46.48
21728;BME280;11026;50.560;17.852;2023-07-30T12:08:13;98984.28;;;28.33;46.19
21728;BME280;11026;50.560;17.852;2023-07-30T12:10:48;98976.34;;;27.95;46.91
21728;BME280;11026;50.560;17.852;2023-07-30T12:13:19;98975.47;;;27.88;47.57
21728;BME280;11026;50.560;17.852;2023-07-30T12:15:53;98976.84;;;28.63;46.23
21728;BME280;11026;50.560;17.852;2023-07-30T12:18:22;98967.03;;;28.97;45.17
21728;BME280;11026;50.560;17.852;2023-07-30T12:20:54;98977.06;;;29.24;44.71
21728;BME280;11026;50.560;17.852;2023-07-30T12:23:22;98978.91;;;28.89;45.26
21728;BME280;11026;50.560;17.852;2023-07-30T12:25:50;98984.66;;;28.30;46.47
21728;BME280;11026;50.560;17.852;2023-07-30T12:28:18;98978.94;;;27.82;46.83
21728;BME280;11026;50.560;17.852;2023-07-30T12:30:46;98977.09;;;27.53;47.71
21728;BME280;11026;50.560;17.852;2023-07-30T12:33:14;98977.94;;;27.68;49.10
21728;BME280;11026;50.560;17.852;2023-07-30T12:35:53;98968.22;;;27.44;47.79
21728;BME280;11026;50.560;17.852;2023-07-30T12:38:21;98972.41;;;27.46;46.90
21728;BME280;11026;50.560;17.852;2023-07-30T12:40:49;98975.63;;;27.35;46.52
21728;BME280;11026;50.560;17.852;2023-07-30T12:43:17;98965.13;;;27.03;46.54
21728;BME280;11026;50.560;17.852;2023-07-30T12:45:48;98973.09;;;27.34;47.57
21728;BME280;11026;50.560;17.852;2023-07-30T12:48:15;98964.38;;;27.38;47.91
21728;BME280;11026;50.560;17.852;2023-07-30T12:50:45;98968.31;;;27.06;47.74
21728;BME280;11026;50.560;17.852;2023-07-30T12:53:13;98969.69;;;27.02;48.64
21728;BME280;11026;50.560;17.852;2023-07-30T12:55:41;98976.47;;;27.21;47.29
21728;BME280;11026;50.560;17.852;2023-07-30T12:58:08;98979.00;;;27.37;46.15